Time;durP1;ratioP1;P1;durP2;ratioP2;P2;SDS_P1;SDS_P2;PMS_P1;PMS_P2;Temp;Humidity;BMP_temperature;BMP_pressure;BME280_temperature;BME280_humidity;BME280_pressure;Samples;Min_cycle;Max_cycle;Signal;HPM_P1;HPM_P2
2023/03/16 00:00:12;;;;;;;1.30;1.30;;;;;;;;;;5043368;28;20537;-73
2023/03/16 00:02:39;;;;;;;1.77;1.67;;;;;;;;;;5046167;28;20845;-73
2023/03/16 00:05:05;;;;;;;1.30;1.30;;;;;;;;;;5046141;28;20454;-73
2023/03/16 00:07:31;;;;;;;1.50;1.50;;;;;;;;;;5043959;28;20496;-73
2023/03/16 00:09:57;;;;;;;1.63;1.53;;;;;;;;;;5045392;28;20970;-72
2023/03/16 00:12:25;;;;;;;1.83;1.60;;;;;;;;;;5048851;28;20497;-72
2023/03/16 00:14:51;;;;;;;7.83;2.07;;;;;;;;;;5041357;28;20529;-72
2023/03/16 00:17:18;;;;;;;1.60;1.50;;;;;;;;;;5045172;28;21025;-72
2023/03/16 00:19:47;;;;;;;1.60;1.50;;;;;;;;;;5044611;28;20444;-72
2023/03/16 00:22:15;;;;;;;1.20;1.20;;;;;;;;;;5045767;28;20450;-72
2023/03/16 00:24:44;;;;;;;1.40;1.40;;;;;;;;;;5045254;28;20470;-72
2023/03/16 00:27:13;;;;;;;1.17;1.17;;;;;;;;;;5047262;28;20443;-72
2023/03/16 00:29:46;;;;;;;1.20;1.10;;;;;;;;;;5045580;28;20848;-72
2023/03/16 00:32:15;;;;;;;2.03;1.93;;;;;;;;;;5047616;28;20846;-72
2023/03/16 00:34:41;;;;;;;1.77;1.67;;;;;;;;;;5048895;28;20858;-73
2023/03/16 00:37:07;;;;;;;2.60;1.33;;;;;;;;;;5044817;28;20954;-73
2023/03/16 00:39:34;;;;;;;1.70;1.20;;;;;;;;;;5046905;28;20829;-72
2023/03/16 00:42:01;;;;;;;1.23;1.10;;;;;;;;;;5046241;28;20813;-72
2023/03/16 00:44:27;;;;;;;1.40;1.30;;;;;;;;;;5043297;28;20453;-73
2023/03/16 00:46:53;;;;;;;6.33;1.50;;;;;;;;;;5041574;28;20925;-72
2023/03/16 00:49:21;;;;;;;3.13;1.13;;;;;;;;;;5046171;28;20776;-72
2023/03/16 00:51:47;;;;;;;0.93;0.93;;;;;;;;;;5047699;28;20858;-72
2023/03/16 00:54:13;;;;;;;0.90;0.90;;;;;;;;;;5048483;28;20438;-72
2023/03/16 00:56:39;;;;;;;1.20;1.20;;;;;;;;;;5042929;28;20861;-72
2023/03/16 00:59:05;;;;;;;1.23;1.20;;;;;;;;;;5043762;28;20485;-72
2023/03/16 01:01:34;;;;;;;1.13;1.13;;;;;;;;;;5045569;28;20438;-72
2023/03/16 01:04:00;;;;;;;9.83;1.47;;;;;;;;;;5046100;28;20446;-72
2023/03/16 01:06:26;;;;;;;1.00;1.00;;;;;;;;;;5046974;28;20441;-72
2023/03/16 01:08:52;;;;;;;1.20;1.20;;;;;;;;;;5046795;28;20434;-72
2023/03/16 01:11:20;;;;;;;1.60;1.50;;;;;;;;;;5046310;28;20488;-72
2023/03/16 01:13:47;;;;;;;2.20;1.60;;;;;;;;;;5045277;28;20511;-73
2023/03/16 01:16:13;;;;;;;1.03;1.03;;;;;;;;;;5044412;28;20438;-72
2023/03/16 01:18:40;;;;;;;2.27;2.10;;;;;;;;;;5043750;28;20430;-72
2023/03/16 01:21:07;;;;;;;1.90;1.43;;;;;;;;;;5046471;28;20804;-73
2023/03/16 01:23:34;;;;;;;1.57;1.50;;;;;;;;;;5052034;28;20980;-72
2023/03/16 01:26:01;;;;;;;1.43;1.43;;;;;;;;;;5050802;28;20528;-72
2023/03/16 01:28:27;;;;;;;1.97;1.80;;;;;;;;;;5048978;28;20422;-72
2023/03/16 01:30:56;;;;;;;2.33;1.03;;;;;;;;;;5049650;28;20453;-72
2023/03/16 01:33:22;;;;;;;1.10;1.10;;;;;;;;;;5049344;28;20482;-72
2023/03/16 01:35:52;;;;;;;1.20;1.20;;;;;;;;;;5049713;28;20433;-72
2023/03/16 01:38:18;;;;;;;2.20;1.27;;;;;;;;;;5046576;28;20452;-73
2023/03/16 01:40:44;;;;;;;1.03;1.03;;;;;;;;;;5047912;28;20438;-72
2023/03/16 01:43:10;;;;;;;4.87;1.47;;;;;;;;;;5051072;28;20468;-72
2023/03/16 01:45:55;;;;;;;1.00;1.00;;;;;;;;;;5051472;28;20434;-73
2023/03/16 01:48:23;;;;;;;2.10;1.03;;;;;;;;;;5046183;28;20958;-72
2023/03/16 01:50:51;;;;;;;0.97;0.97;;;;;;;;;;5046183;28;20821;-72
2023/03/16 01:53:17;;;;;;;1.10;1.10;;;;;;;;;;5048024;28;20502;-72
2023/03/16 01:55:43;;;;;;;1.17;1.17;;;;;;;;;;5049264;28;20442;-73
2023/03/16 01:58:10;;;;;;;1.03;1.03;;;;;;;;;;5050088;28;20449;-72
2023/03/16 02:00:37;;;;;;;1.47;1.47;;;;;;;;;;5048036;28;20446;-72
2023/03/16 02:03:10;;;;;;;1.17;1.17;;;;;;;;;;5048748;28;20422;-73
2023/03/16 02:05:41;;;;;;;2.83;1.00;;;;;;;;;;5046454;28;20465;-72
2023/03/16 02:08:08;;;;;;;3.03;0.93;;;;;;;;;;5050620;28;20499;-73
2023/03/16 02:10:34;;;;;;;2.00;0.90;;;;;;;;;;5049090;28;20799;-73
2023/03/16 02:13:00;;;;;;;1.20;1.20;;;;;;;;;;5050147;28;20505;-72
2023/03/16 02:15:26;;;;;;;1.23;1.13;;;;;;;;;;5043727;28;20463;-72
2023/03/16 02:17:53;;;;;;;4.10;1.17;;;;;;;;;;5044722;28;20874;-72
2023/03/16 02:20:32;;;;;;;1.30;1.20;;;;;;;;;;5048978;28;20480;-73
2023/03/16 02:22:58;;;;;;;0.93;0.93;;;;;;;;;;5050292;28;20445;-73
2023/03/16 02:25:27;;;;;;;1.13;1.13;;;;;;;;;;5050649;28;20427;-73
2023/03/16 02:28:11;;;;;;;0.70;0.70;;;;;;;;;;5048136;28;20442;-72
2023/03/16 02:30:37;;;;;;;1.10;1.10;;;;;;;;;;5046671;28;20446;-73
2023/03/16 02:33:06;;;;;;;1.47;1.40;;;;;;;;;;5049510;28;20559;-73
2023/03/16 02:35:33;;;;;;;0.80;0.80;;;;;;;;;;5048320;28;20446;-72
2023/03/16 02:38:00;;;;;;;0.80;0.80;;;;;;;;;;5046120;28;21058;-72
2023/03/16 02:40:28;;;;;;;1.37;1.37;;;;;;;;;;5046117;28;20973;-72
2023/03/16 02:43:06;;;;;;;1.60;1.60;;;;;;;;;;5047113;28;20431;-72
2023/03/16 02:45:36;;;;;;;0.90;0.90;;;;;;;;;;5043506;28;20956;-72
2023/03/16 02:48:04;;;;;;;0.93;0.93;;;;;;;;;;5045220;28;20438;-72
2023/03/16 02:50:30;;;;;;;0.80;0.80;;;;;;;;;;5047211;28;20442;-72
2023/03/16 02:52:56;;;;;;;3.63;1.20;;;;;;;;;;5047364;28;20535;-73
2023/03/16 02:55:22;;;;;;;1.10;1.10;;;;;;;;;;5039433;28;20435;-72
2023/03/16 02:57:48;;;;;;;0.73;0.73;;;;;;;;;;5025256;28;20439;-72
2023/03/16 03:00:17;;;;;;;0.80;0.80;;;;;;;;;;5036214;28;20438;-72
2023/03/16 03:02:43;;;;;;;1.27;0.90;;;;;;;;;;5044234;28;20434;-72
2023/03/16 03:05:10;;;;;;;1.03;1.03;;;;;;;;;;5037550;28;20446;-72
2023/03/16 03:07:36;;;;;;;1.30;1.30;;;;;;;;;;5043825;28;20447;-72
2023/03/16 03:10:04;;;;;;;0.97;0.97;;;;;;;;;;5046461;28;20794;-72
2023/03/16 03:12:30;;;;;;;1.20;1.20;;;;;;;;;;5047113;28;20514;-73
2023/03/16 03:14:56;;;;;;;1.30;1.03;;;;;;;;;;5045823;28;21996;-72
2023/03/16 03:17:28;;;;;;;1.00;1.00;;;;;;;;;;5048982;28;20473;-73
2023/03/16 03:19:54;;;;;;;1.03;1.00;;;;;;;;;;5047520;28;20430;-73
2023/03/16 03:22:20;;;;;;;1.70;1.60;;;;;;;;;;5048255;28;20548;-72
2023/03/16 03:24:46;;;;;;;2.30;1.10;;;;;;;;;;5048711;28;20525;-72
2023/03/16 03:27:12;;;;;;;1.20;1.20;;;;;;;;;;5048454;28;20937;-72
2023/03/16 03:29:38;;;;;;;11.17;1.30;;;;;;;;;;5046778;28;20422;-72
2023/03/16 03:32:04;;;;;;;1.40;1.40;;;;;;;;;;5045722;28;20470;-72
2023/03/16 03:34:30;;;;;;;3.23;1.23;;;;;;;;;;5048214;28;20953;-72
2023/03/16 03:36:56;;;;;;;1.60;1.50;;;;;;;;;;5047355;28;20450;-72
2023/03/16 03:39:23;;;;;;;1.20;1.20;;;;;;;;;;5046520;28;20998;-72
2023/03/16 03:41:49;;;;;;;1.80;1.80;;;;;;;;;;5044969;28;20426;-72
2023/03/16 03:44:15;;;;;;;2.57;2.37;;;;;;;;;;5046152;28;20431;-72
2023/03/16 03:46:41;;;;;;;2.90;2.70;;;;;;;;;;5048784;28;20484;-72
2023/03/16 03:49:07;;;;;;;2.67;2.47;;;;;;;;;;5046616;28;20435;-71
2023/03/16 03:51:34;;;;;;;2.50;2.40;;;;;;;;;;5047443;28;20517;-72
2023/03/16 03:54:00;;;;;;;2.40;2.30;;;;;;;;;;5049292;28;20441;-72
2023/03/16 03:56:26;;;;;;;3.10;2.50;;;;;;;;;;5046236;28;20430;-72
2023/03/16 03:58:52;;;;;;;4.33;2.70;;;;;;;;;;5048558;28;20529;-72
2023/03/16 04:01:18;;;;;;;3.33;1.83;;;;;;;;;;5046934;28;20454;-72
2023/03/16 04:03:44;;;;;;;1.73;1.63;;;;;;;;;;5048446;28;20477;-72
2023/03/16 04:06:10;;;;;;;2.00;1.90;;;;;;;;;;5047353;28;20933;-73
2023/03/16 04:08:36;;;;;;;2.27;1.73;;;;;;;;;;5045974;28;20434;-73
2023/03/16 04:11:02;;;;;;;6.53;1.70;;;;;;;;;;5045647;28;20514;-72
2023/03/16 04:13:28;;;;;;;2.50;1.40;;;;;;;;;;5062458;28;20489;-72
2023/03/16 04:15:58;;;;;;;1.77;1.67;;;;;;;;;;5045794;28;20875;-72
2023/03/16 04:18:24;;;;;;;2.03;1.70;;;;;;;;;;5046187;28;20441;-73
2023/03/16 04:20:54;;;;;;;1.40;1.40;;;;;;;;;;5045591;28;20419;-72
2023/03/16 04:23:20;;;;;;;3.20;1.23;;;;;;;;;;5045741;28;20487;-73
2023/03/16 04:25:46;;;;;;;1.10;1.10;;;;;;;;;;5044307;28;20434;-72
2023/03/16 04:28:16;;;;;;;1.27;1.27;;;;;;;;;;5045072;28;20823;-72
2023/03/16 04:30:42;;;;;;;0.93;0.93;;;;;;;;;;5039272;28;20446;-73
2023/03/16 04:33:08;;;;;;;1.53;1.40;;;;;;;;;;5042266;28;20500;-73
2023/03/16 04:35:34;;;;;;;1.33;1.33;;;;;;;;;;5046179;28;20426;-73
2023/03/16 04:38:01;;;;;;;1.73;1.63;;;;;;;;;;5042686;28;20904;-72
2023/03/16 04:40:29;;;;;;;1.17;1.00;;;;;;;;;;5047766;28;20513;-72
2023/03/16 04:42:55;;;;;;;1.87;1.67;;;;;;;;;;5047482;28;20524;-72
2023/03/16 04:45:21;;;;;;;3.07;1.23;;;;;;;;;;5046464;28;20851;-72
2023/03/16 04:47:48;;;;;;;1.43;1.43;;;;;;;;;;5046362;28;20825;-73
2023/03/16 04:50:14;;;;;;;1.37;1.27;;;;;;;;;;5041613;28;20445;-72
2023/03/16 04:52:40;;;;;;;1.57;1.47;;;;;;;;;;5048196;28;20516;-73
2023/03/16 04:55:06;;;;;;;2.90;2.10;;;;;;;;;;5048459;28;20445;-73
2023/03/16 04:57:33;;;;;;;1.17;1.17;;;;;;;;;;5051438;28;20495;-73
2023/03/16 04:59:59;;;;;;;1.57;1.43;;;;;;;;;;5048016;28;20491;-72
2023/03/16 05:02:25;;;;;;;1.20;1.10;;;;;;;;;;5046135;28;20430;-72
2023/03/16 05:04:51;;;;;;;7.20;1.57;;;;;;;;;;5047898;28;20444;-72
2023/03/16 05:07:18;;;;;;;1.13;1.13;;;;;;;;;;5049884;28;20794;-72
2023/03/16 05:09:44;;;;;;;1.80;1.57;;;;;;;;;;5048645;28;20430;-72
2023/03/16 05:12:10;;;;;;;1.30;1.30;;;;;;;;;;5043493;28;20867;-72
2023/03/16 05:14:36;;;;;;;1.47;1.30;;;;;;;;;;5041401;28;20467;-72
2023/03/16 05:17:02;;;;;;;1.70;1.70;;;;;;;;;;5049170;28;20570;-72
2023/03/16 05:19:29;;;;;;;2.07;1.97;;;;;;;;;;5045410;28;20426;-73
2023/03/16 05:21:55;;;;;;;1.80;1.70;;;;;;;;;;5049603;28;20438;-72
2023/03/16 05:24:22;;;;;;;2.67;2.47;;;;;;;;;;5047315;28;20449;-72
2023/03/16 05:26:48;;;;;;;2.33;1.77;;;;;;;;;;5049421;28;20521;-73
2023/03/16 05:29:14;;;;;;;2.17;2.07;;;;;;;;;;5050016;28;20469;-72
2023/03/16 05:31:40;;;;;;;1.00;1.00;;;;;;;;;;5051069;28;20470;-72
2023/03/16 05:34:06;;;;;;;1.10;1.10;;;;;;;;;;5050137;28;20446;-72
2023/03/16 05:36:34;;;;;;;1.20;1.20;;;;;;;;;;5040919;28;20439;-72
2023/03/16 05:39:00;;;;;;;1.50;1.50;;;;;;;;;;5040653;28;20436;-75
2023/03/16 05:41:27;;;;;;;6.03;1.37;;;;;;;;;;5049641;28;20425;-75
2023/03/16 05:43:53;;;;;;;1.60;1.50;;;;;;;;;;5048286;28;20767;-75
2023/03/16 05:46:19;;;;;;;0.83;0.83;;;;;;;;;;5046607;28;20945;-75
2023/03/16 05:48:45;;;;;;;1.10;1.10;;;;;;;;;;5044374;28;20441;-75
2023/03/16 05:51:13;;;;;;;1.60;1.50;;;;;;;;;;5046676;28;20989;-75
2023/03/16 05:53:39;;;;;;;18.13;1.13;;;;;;;;;;5048757;28;20485;-73
2023/03/16 05:56:05;;;;;;;1.20;1.20;;;;;;;;;;5049512;28;20422;-73
2023/03/16 05:58:32;;;;;;;3.10;1.30;;;;;;;;;;5049595;28;20437;-73
2023/03/16 06:01:00;;;;;;;1.20;1.20;;;;;;;;;;5048281;28;20517;-73
2023/03/16 06:03:26;;;;;;;2.83;1.20;;;;;;;;;;5045435;28;20565;-75
2023/03/16 06:05:52;;;;;;;1.37;1.37;;;;;;;;;;5042853;28;20529;-75
2023/03/16 06:08:18;;;;;;;1.13;1.13;;;;;;;;;;5045284;28;20850;-75
2023/03/16 06:10:47;;;;;;;2.43;1.17;;;;;;;;;;5048423;28;20422;-75
2023/03/16 06:13:14;;;;;;;0.80;0.80;;;;;;;;;;5048875;28;20490;-73
2023/03/16 06:15:40;;;;;;;1.07;1.07;;;;;;;;;;5050541;28;20434;-73
2023/03/16 06:18:06;;;;;;;0.97;0.97;;;;;;;;;;5049473;28;20801;-72
2023/03/16 06:20:32;;;;;;;2.73;1.30;;;;;;;;;;5046107;28;20433;-73
2023/03/16 06:22:57;;;;;;;1.30;1.30;;;;;;;;;;5043595;28;20802;-73
2023/03/16 06:25:23;;;;;;;1.23;1.23;;;;;;;;;;5046602;28;20911;-73
2023/03/16 06:27:50;;;;;;;1.67;1.47;;;;;;;;;;5045422;28;20434;-73
2023/03/16 06:30:16;;;;;;;1.77;1.67;;;;;;;;;;5047674;28;20457;-73
2023/03/16 06:32:44;;;;;;;1.40;1.40;;;;;;;;;;5044364;28;20553;-73
2023/03/16 06:35:10;;;;;;;1.53;1.53;;;;;;;;;;5046121;28;20522;-73
2023/03/16 06:37:36;;;;;;;1.60;1.60;;;;;;;;;;5047978;28;20470;-72
2023/03/16 06:40:02;;;;;;;1.50;1.40;;;;;;;;;;5047809;28;20466;-73
2023/03/16 06:42:28;;;;;;;6.63;2.10;;;;;;;;;;5045895;28;20445;-73
2023/03/16 06:44:55;;;;;;;2.50;2.40;;;;;;;;;;5045890;28;20435;-74
2023/03/16 06:47:21;;;;;;;1.53;1.53;;;;;;;;;;5049677;28;20946;-73
2023/03/16 06:49:47;;;;;;;1.83;1.83;;;;;;;;;;5046186;28;20955;-74
2023/03/16 06:52:14;;;;;;;2.07;1.97;;;;;;;;;;5043871;28;21044;-72
2023/03/16 06:54:40;;;;;;;2.00;2.00;;;;;;;;;;5044887;28;20545;-74
2023/03/16 06:57:10;;;;;;;1.70;1.70;;;;;;;;;;5050471;28;20418;-73
2023/03/16 06:59:36;;;;;;;12.67;2.00;;;;;;;;;;5045966;28;20435;-68
2023/03/16 07:02:02;;;;;;;5.03;4.60;;;;;;;;;;5048610;28;20500;-68
2023/03/16 07:04:28;;;;;;;4.67;4.30;;;;;;;;;;5042643;28;20536;-68
2023/03/16 07:06:54;;;;;;;7.53;3.77;;;;;;;;;;5043111;28;20485;-68
2023/03/16 07:09:20;;;;;;;5.33;3.43;;;;;;;;;;5048760;28;20481;-67
2023/03/16 07:11:46;;;;;;;4.30;2.40;;;;;;;;;;5046055;28;21346;-68
2023/03/16 07:14:12;;;;;;;3.20;2.90;;;;;;;;;;5048821;28;20675;-68
2023/03/16 07:16:38;;;;;;;2.60;2.50;;;;;;;;;;5043880;28;20436;-68
2023/03/16 07:19:04;;;;;;;2.27;2.17;;;;;;;;;;5043571;28;20446;-68
2023/03/16 07:21:37;;;;;;;4.00;1.57;;;;;;;;;;5043710;28;20484;-68
2023/03/16 07:24:04;;;;;;;9.70;1.93;;;;;;;;;;5050420;28;20526;-68
2023/03/16 07:26:31;;;;;;;8.13;1.77;;;;;;;;;;5049309;28;20431;-68
2023/03/16 07:28:57;;;;;;;1.57;1.47;;;;;;;;;;5047488;28;20460;-68
2023/03/16 07:31:23;;;;;;;1.60;1.57;;;;;;;;;;5044599;28;20434;-68
2023/03/16 07:33:49;;;;;;;1.67;1.57;;;;;;;;;;5040149;28;20850;-68
2023/03/16 07:36:15;;;;;;;2.30;1.57;;;;;;;;;;5042598;28;20434;-68
2023/03/16 07:38:41;;;;;;;1.90;1.80;;;;;;;;;;5045711;28;21023;-68
2023/03/16 07:41:07;;;;;;;2.20;2.00;;;;;;;;;;5044286;28;20442;-68
2023/03/16 07:43:34;;;;;;;4.53;2.17;;;;;;;;;;5046016;28;20515;-68
2023/03/16 07:46:00;;;;;;;2.33;2.13;;;;;;;;;;5049505;28;20454;-68
2023/03/16 07:48:26;;;;;;;1.87;1.87;;;;;;;;;;5046527;28;20513;-68
2023/03/16 07:50:53;;;;;;;1.20;1.20;;;;;;;;;;5043425;28;20493;-68
2023/03/16 07:53:19;;;;;;;2.60;1.87;;;;;;;;;;5048428;28;20474;-68
2023/03/16 07:55:45;;;;;;;1.80;1.43;;;;;;;;;;5050500;28;20422;-68
2023/03/16 07:58:11;;;;;;;1.77;1.67;;;;;;;;;;5048972;28;20430;-68
2023/03/16 08:00:38;;;;;;;1.67;1.57;;;;;;;;;;5026660;28;20451;-68
2023/03/16 08:03:04;;;;;;;2.07;1.90;;;;;;;;;;5047173;28;20442;-68
2023/03/16 08:05:34;;;;;;;2.00;2.00;;;;;;;;;;5045615;28;20454;-68
2023/03/16 08:08:00;;;;;;;1.50;1.50;;;;;;;;;;5047204;28;20530;-68
2023/03/16 08:10:26;;;;;;;1.67;1.63;;;;;;;;;;5046292;28;20805;-68
2023/03/16 08:12:52;;;;;;;1.60;1.60;;;;;;;;;;5045409;28;20478;-68
2023/03/16 08:15:18;;;;;;;1.17;1.17;;;;;;;;;;5046573;28;20948;-68
2023/03/16 08:17:45;;;;;;;1.30;1.20;;;;;;;;;;5048060;28;20422;-68
2023/03/16 08:20:13;;;;;;;2.67;1.27;;;;;;;;;;5044765;28;21005;-68
2023/03/16 08:22:39;;;;;;;2.10;2.00;;;;;;;;;;5045971;28;20450;-68
2023/03/16 08:25:09;;;;;;;3.90;1.97;;;;;;;;;;5049585;28;20426;-68
2023/03/16 08:27:36;;;;;;;1.70;1.60;;;;;;;;;;5044382;28;20442;-70
2023/03/16 08:30:04;;;;;;;3.80;1.70;;;;;;;;;;5047902;28;20499;-68
2023/03/16 08:32:30;;;;;;;1.57;1.57;;;;;;;;;;5046803;28;20957;-68
2023/03/16 08:34:57;;;;;;;4.77;1.73;;;;;;;;;;5052229;28;20441;-68
2023/03/16 08:37:23;;;;;;;7.00;2.10;;;;;;;;;;5048721;28;20435;-68
2023/03/16 08:39:53;;;;;;;2.53;2.33;;;;;;;;;;5052512;28;20832;-69
2023/03/16 08:42:19;;;;;;;6.53;4.30;;;;;;;;;;5050022;28;20445;-68
2023/03/16 08:44:46;;;;;;;5.20;1.97;;;;;;;;;;5052970;28;20426;-67
2023/03/16 08:47:13;;;;;;;1.67;1.60;;;;;;;;;;5053159;28;20450;-68
2023/03/16 08:49:40;;;;;;;2.07;1.60;;;;;;;;;;5050488;28;20464;-68
2023/03/16 08:52:09;;;;;;;1.50;1.50;;;;;;;;;;5051480;28;20458;-68
2023/03/16 08:54:36;;;;;;;1.33;0.87;;;;;;;;;;5051169;28;20434;-68
2023/03/16 08:57:02;;;;;;;3.33;1.70;;;;;;;;;;5051839;28;20418;-68
2023/03/16 08:59:28;;;;;;;2.40;1.10;;;;;;;;;;5049635;28;20441;-68
2023/03/16 09:01:54;;;;;;;1.67;1.30;;;;;;;;;;5048415;28;20433;-68
2023/03/16 09:04:20;;;;;;;1.77;1.67;;;;;;;;;;5052312;28;20551;-68
2023/03/16 09:06:47;;;;;;;8.60;1.17;;;;;;;;;;5047121;28;20437;-67
2023/03/16 09:09:13;;;;;;;1.17;1.17;;;;;;;;;;5051675;28;20477;-66
2023/03/16 09:11:39;;;;;;;1.50;1.40;;;;;;;;;;5027349;28;20989;-68
2023/03/16 09:14:05;;;;;;;6.40;2.70;;;;;;;;;;5040899;28;20521;-68
2023/03/16 09:16:31;;;;;;;2.10;2.10;;;;;;;;;;5050488;28;20441;-68
2023/03/16 09:18:58;;;;;;;4.00;1.50;;;;;;;;;;5048610;28;20452;-68
2023/03/16 09:21:24;;;;;;;3.05;2.95;;;;;;;;;;5042642;28;20543;-68
2023/03/16 09:23:50;;;;;;;1.80;1.80;;;;;;;;;;5027605;28;20276;-68
2023/03/16 09:26:16;;;;;;;2.33;2.23;;;;;;;;;;5046972;28;20587;-68
2023/03/16 09:28:42;;;;;;;4.63;2.20;;;;;;;;;;5040164;28;20438;-68
2023/03/16 09:31:10;;;;;;;2.77;2.43;;;;;;;;;;5044874;28;20817;-68
2023/03/16 09:33:36;;;;;;;3.90;2.30;;;;;;;;;;5046929;28;20493;-68
2023/03/16 09:36:02;;;;;;;4.97;2.20;;;;;;;;;;5048577;28;20435;-68
2023/03/16 09:38:29;;;;;;;4.20;2.20;;;;;;;;;;5050005;28;21034;-68
2023/03/16 09:40:57;;;;;;;2.00;2.00;;;;;;;;;;5051204;28;20460;-68
2023/03/16 09:43:26;;;;;;;2.40;2.20;;;;;;;;;;5049677;28;20517;-68
2023/03/16 09:46:01;;;;;;;3.33;2.37;;;;;;;;;;5049182;28;20973;-67
2023/03/16 09:48:30;;;;;;;2.67;2.57;;;;;;;;;;5051511;28;20524;-68
2023/03/16 09:50:56;;;;;;;4.57;1.60;;;;;;;;;;5047706;28;20500;-68
2023/03/16 09:53:28;;;;;;;1.53;1.53;;;;;;;;;;5049129;28;20490;-68
2023/03/16 09:56:02;;;;;;;2.27;2.17;;;;;;;;;;5049885;28;20430;-68
2023/03/16 09:58:28;;;;;;;10.00;7.47;;;;;;;;;;5047372;28;20938;-68
2023/03/16 10:01:09;;;;;;;2.10;2.10;;;;;;;;;;5047369;28;20519;-68
2023/03/16 10:03:41;;;;;;;3.80;3.17;;;;;;;;;;5050596;28;20445;-68
2023/03/16 10:06:09;;;;;;;1.30;1.30;;;;;;;;;;5045705;28;20526;-68
2023/03/16 10:08:54;;;;;;;1.57;1.57;;;;;;;;;;5044680;28;20486;-68
2023/03/16 10:11:40;;;;;;;2.70;1.53;;;;;;;;;;5051104;28;20461;-68
2023/03/16 10:14:24;;;;;;;1.20;1.20;;;;;;;;;;5050348;28;20565;-68
2023/03/16 10:16:53;;;;;;;2.10;1.10;;;;;;;;;;5043474;28;20441;-68
2023/03/16 10:19:26;;;;;;;1.20;1.20;;;;;;;;;;5047085;28;20427;-68
2023/03/16 10:21:54;;;;;;;1.00;1.00;;;;;;;;;;5047951;28;20437;-68
2023/03/16 10:24:29;;;;;;;1.67;1.57;;;;;;;;;;5049256;28;20468;-68
2023/03/16 10:26:59;;;;;;;2.20;2.00;;;;;;;;;;5047290;28;20501;-68
2023/03/16 10:29:26;;;;;;;1.63;1.50;;;;;;;;;;5046925;28;20469;-68
2023/03/16 10:31:54;;;;;;;1.30;1.20;;;;;;;;;;5050601;28;20426;-67
2023/03/16 10:34:22;;;;;;;2.60;1.43;;;;;;;;;;5048190;28;20528;-67
2023/03/16 10:36:48;;;;;;;2.00;1.33;;;;;;;;;;5047810;28;20489;-68
2023/03/16 10:39:15;;;;;;;1.57;1.47;;;;;;;;;;5046455;28;20423;-68
2023/03/16 10:41:45;;;;;;;1.47;1.40;;;;;;;;;;5049429;28;20500;-68
2023/03/16 10:44:13;;;;;;;1.50;1.50;;;;;;;;;;5049055;28;20454;-67
2023/03/16 10:46:46;;;;;;;1.47;1.47;;;;;;;;;;5050441;28;20801;-67
2023/03/16 10:49:25;;;;;;;1.60;1.60;;;;;;;;;;5045928;28;20434;-68
2023/03/16 10:51:53;;;;;;;1.67;1.67;;;;;;;;;;5045980;28;20434;-68
2023/03/16 10:54:24;;;;;;;1.57;1.03;;;;;;;;;;5049953;28;20442;-67
2023/03/16 10:56:50;;;;;;;1.23;1.23;;;;;;;;;;5048476;28;20450;-68
2023/03/16 10:59:26;;;;;;;2.13;1.93;;;;;;;;;;5046884;28;20468;-68
2023/03/16 11:01:52;;;;;;;2.00;1.90;;;;;;;;;;5047977;28;20426;-68
2023/03/16 11:04:19;;;;;;;1.37;1.37;;;;;;;;;;5048381;28;20438;-68
2023/03/16 11:07:03;;;;;;;1.10;1.10;;;;;;;;;;5047302;28;20435;-68
2023/03/16 11:09:33;;;;;;;1.70;1.27;;;;;;;;;;5045598;28;20439;-67
2023/03/16 11:11:59;;;;;;;1.83;1.63;;;;;;;;;;5042915;28;20851;-68
2023/03/16 11:14:27;;;;;;;1.93;1.83;;;;;;;;;;5046159;28;20872;-68
2023/03/16 11:17:04;;;;;;;1.30;1.30;;;;;;;;;;5049899;28;20406;-67
2023/03/16 11:19:34;;;;;;;1.70;1.70;;;;;;;;;;5040232;28;20438;-68
2023/03/16 11:22:19;;;;;;;2.70;2.53;;;;;;;;;;5046518;28;20426;-68
2023/03/16 11:24:58;;;;;;;1.43;1.33;;;;;;;;;;5041267;28;20457;-68
2023/03/16 11:27:34;;;;;;;3.20;2.20;;;;;;;;;;5045900;28;20533;-67
2023/03/16 11:30:19;;;;;;;43.60;24.93;;;;;;;;;;5046407;28;20480;-67
2023/03/16 11:32:52;;;;;;;60.47;29.73;;;;;;;;;;5047771;28;20504;-67
2023/03/16 11:35:38;;;;;;;8.50;6.20;;;;;;;;;;5047566;28;20468;-68
2023/03/16 11:38:10;;;;;;;6.40;3.80;;;;;;;;;;5050009;28;20430;-68
2023/03/16 11:40:52;;;;;;;2.30;1.23;;;;;;;;;;5047999;28;20431;-68
2023/03/16 11:43:18;;;;;;;2.20;2.10;;;;;;;;;;5047123;28;20991;-68
2023/03/16 11:45:55;;;;;;;1.10;1.10;;;;;;;;;;5049947;28;20422;-68
2023/03/16 11:48:29;;;;;;;3.20;3.00;;;;;;;;;;5048907;28;20408;-61
2023/03/16 11:51:06;;;;;;;6.47;5.97;;;;;;;;;;5047926;28;20176;-67
2023/03/16 11:53:42;;;;;;;7.93;1.80;;;;;;;;;;5040232;28;20481;-67
2023/03/16 11:56:08;;;;;;;2.37;2.23;;;;;;;;;;5049624;28;20434;-67
2023/03/16 11:58:53;;;;;;;2.70;2.40;;;;;;;;;;5044465;28;21914;-67
2023/03/16 12:01:33;;;;;;;1.50;1.40;;;;;;;;;;5049382;28;20418;-68
2023/03/16 12:04:15;;;;;;;1.80;1.70;;;;;;;;;;5035040;28;20441;-68
2023/03/16 12:06:44;;;;;;;4.57;3.30;;;;;;;;;;5042744;28;20504;-68
2023/03/16 12:09:19;;;;;;;2.70;2.47;;;;;;;;;;5046326;28;20430;-67
2023/03/16 12:12:04;;;;;;;1.30;1.30;;;;;;;;;;5047780;28;20472;-68
2023/03/16 12:14:39;;;;;;;19.03;11.20;;;;;;;;;;5045220;28;20549;-68
2023/03/16 12:17:08;;;;;;;3.47;3.30;;;;;;;;;;5046068;28;20964;-68
2023/03/16 12:19:38;;;;;;;7.20;5.60;;;;;;;;;;5043944;28;20431;-68
2023/03/16 12:22:24;;;;;;;4.17;1.67;;;;;;;;;;5044606;28;20455;-68
2023/03/16 12:24:50;;;;;;;2.40;1.10;;;;;;;;;;5038232;28;20968;-67
2023/03/16 12:27:21;;;;;;;1.70;1.70;;;;;;;;;;5041425;28;20984;-68
2023/03/16 12:30:08;;;;;;;1.57;1.10;;;;;;;;;;5046986;28;20504;-67
2023/03/16 12:32:44;;;;;;;8.33;1.60;;;;;;;;;;5037642;28;20473;-70
2023/03/16 12:35:19;;;;;;;2.63;1.87;;;;;;;;;;5042247;28;20434;-68
2023/03/16 12:37:55;;;;;;;1.00;1.00;;;;;;;;;;5038697;28;20442;-68
2023/03/16 12:40:24;;;;;;;1.00;1.00;;;;;;;;;;5044913;28;20426;-68
2023/03/16 12:42:55;;;;;;;1.40;1.40;;;;;;;;;;5040041;28;20938;-68
2023/03/16 12:45:50;;;;;;;0.83;0.83;;;;;;;;;;5045954;28;20513;-68
2023/03/16 12:48:36;;;;;;;1.53;1.27;;;;;;;;;;5042518;28;20474;-68
2023/03/16 12:51:03;;;;;;;1.97;1.07;;;;;;;;;;5048799;28;20911;-68
2023/03/16 12:53:39;;;;;;;1.40;1.20;;;;;;;;;;5045242;28;20498;-68
2023/03/16 12:56:08;;;;;;;0.77;0.77;;;;;;;;;;5047456;28;20433;-68
2023/03/16 12:58:35;;;;;;;1.53;1.43;;;;;;;;;;5046427;28;20430;-68
2023/03/16 13:01:02;;;;;;;1.30;1.30;;;;;;;;;;5043668;28;20443;-68
2023/03/16 13:03:28;;;;;;;0.83;0.83;;;;;;;;;;5040566;28;20977;-68
2023/03/16 13:05:59;;;;;;;1.50;1.50;;;;;;;;;;5048282;28;20421;-68
2023/03/16 13:08:26;;;;;;;1.43;1.37;;;;;;;;;;5041649;28;20426;-68
2023/03/16 13:11:09;;;;;;;4.23;1.60;;;;;;;;;;5046691;28;20430;-67
2023/03/16 13:13:46;;;;;;;2.70;1.30;;;;;;;;;;5046941;28;20985;-68
2023/03/16 13:16:22;;;;;;;4.63;1.60;;;;;;;;;;5047457;28;20441;-68
2023/03/16 13:18:48;;;;;;;1.77;1.67;;;;;;;;;;5048139;28;20457;-68
2023/03/16 13:21:20;;;;;;;1.30;1.20;;;;;;;;;;5046975;28;20442;-68
2023/03/16 13:23:46;;;;;;;2.50;1.83;;;;;;;;;;5050252;28;20445;-65
2023/03/16 13:26:12;;;;;;;1.80;1.33;;;;;;;;;;5050678;28;20434;-68
2023/03/16 13:28:38;;;;;;;5.00;1.40;;;;;;;;;;5050100;28;20949;-68
2023/03/16 13:31:24;;;;;;;1.10;1.10;;;;;;;;;;5048011;28;20801;-68
2023/03/16 13:33:53;;;;;;;1.30;1.30;;;;;;;;;;5046139;28;20981;-67
2023/03/16 13:36:20;;;;;;;0.90;0.90;;;;;;;;;;5045821;28;20435;-68
2023/03/16 13:38:56;;;;;;;2.07;1.20;;;;;;;;;;5046144;28;20529;-68
2023/03/16 13:41:22;;;;;;;0.90;0.90;;;;;;;;;;5049908;28;20436;-68
2023/03/16 13:43:48;;;;;;;2.20;1.20;;;;;;;;;;5048720;28;20431;-68
2023/03/16 13:46:18;;;;;;;2.80;1.07;;;;;;;;;;5049261;28;20957;-68
2023/03/16 13:48:46;;;;;;;1.03;1.03;;;;;;;;;;5049114;28;21575;-68
2023/03/16 13:51:17;;;;;;;1.60;0.80;;;;;;;;;;5047231;28;21021;-68
2023/03/16 13:53:43;;;;;;;1.30;1.30;;;;;;;;;;5047800;28;20492;-70
2023/03/16 13:56:13;;;;;;;1.10;1.10;;;;;;;;;;5048414;28;20844;-70
2023/03/16 13:58:39;;;;;;;0.97;0.97;;;;;;;;;;5048455;28;20429;-68
2023/03/16 14:01:22;;;;;;;1.37;1.27;;;;;;;;;;5051468;28;20933;-68
2023/03/16 14:03:48;;;;;;;1.03;0.80;;;;;;;;;;5032656;28;20521;-68
2023/03/16 14:06:34;;;;;;;2.30;1.40;;;;;;;;;;5044151;28;20430;-69
2023/03/16 14:09:20;;;;;;;3.37;2.40;;;;;;;;;;5049665;28;20930;-69
2023/03/16 14:11:47;;;;;;;1.10;1.10;;;;;;;;;;5048659;28;20473;-68
2023/03/16 14:14:14;;;;;;;1.07;1.07;;;;;;;;;;5047496;28;20489;-68
2023/03/16 14:16:41;;;;;;;2.27;2.17;;;;;;;;;;5044988;28;20430;-68
2023/03/16 14:19:18;;;;;;;1.17;1.07;;;;;;;;;;5044553;28;20438;-68
2023/03/16 14:21:45;;;;;;;1.20;1.20;;;;;;;;;;5046605;28;20530;-69
2023/03/16 14:24:34;;;;;;;1.30;1.20;;;;;;;;;;5050696;28;20450;-68
2023/03/16 14:27:18;;;;;;;1.70;1.70;;;;;;;;;;5039816;28;20529;-68
2023/03/16 14:29:45;;;;;;;2.87;1.53;;;;;;;;;;5051089;28;20426;-68
2023/03/16 14:32:32;;;;;;;1.10;1.10;;;;;;;;;;5047439;28;20429;-68
2023/03/16 14:35:12;;;;;;;1.37;1.20;;;;;;;;;;5048432;28;20924;-68
2023/03/16 14:37:40;;;;;;;1.20;0.83;;;;;;;;;;5048161;28;20434;-68
2023/03/16 14:40:07;;;;;;;1.20;1.20;;;;;;;;;;5050143;28;20415;-68
2023/03/16 14:42:34;;;;;;;1.27;1.17;;;;;;;;;;5048745;28;20430;-68
2023/03/16 14:45:03;;;;;;;1.80;1.70;;;;;;;;;;5050668;28;20430;-68
2023/03/16 14:47:30;;;;;;;1.80;1.70;;;;;;;;;;5046398;28;20430;-68
2023/03/16 14:49:57;;;;;;;1.23;1.23;;;;;;;;;;5048265;28;20435;-80
2023/03/16 14:52:30;;;;;;;1.53;1.53;;;;;;;;;;5050915;28;20503;-73